createdAt,value
2018-03-01T00:01:01.975Z,81.60
2018-03-01T00:05:06.137Z,80.79
2018-03-01T00:09:09.508Z,81.32
2018-03-01T00:13:13.633Z,81.63
2018-03-01T00:17:17.765Z,82.00
2018-03-01T00:21:21.903Z,81.62
2018-03-01T00:25:25.454Z,81.56
2018-03-01T00:29:28.818Z,81.31
2018-03-01T00:33:32.493Z,81.45
2018-03-01T00:37:36.038Z,81.08
2018-03-01T00:41:39.445Z,81.62
2018-03-01T00:45:43.559Z,81.08
2018-03-01T00:49:47.074Z,81.39
2018-03-01T00:53:50.530Z,82.00
2018-03-01T00:57:54.075Z,82.04
2018-03-01T01:01:58.196Z,83.42
2018-03-01T01:06:02.326Z,82.81
2018-03-01T01:10:05.705Z,81.87
2018-03-01T01:14:09.061Z,81.88
2018-03-01T01:18:12.482Z,82.08
2018-03-01T01:22:15.852Z,82.74
2018-03-01T01:26:20.257Z,83.01
2018-03-01T01:30:23.748Z,81.97
2018-03-01T01:34:27.201Z,82.83
2018-03-01T01:38:31.325Z,83.25
2018-03-01T01:42:35.523Z,83.90
2018-03-01T01:46:38.959Z,83.56
2018-03-01T01:51:00.235Z,84.05
2018-03-01T01:55:03.606Z,83.98
2018-03-01T01:59:06.984Z,83.64
2018-03-01T02:03:11.117Z,82.06
2018-03-01T02:07:14.501Z,81.87
2018-03-01T02:11:17.876Z,80.63
2018-03-01T02:15:21.267Z,81.24
2018-03-01T02:19:24.623Z,81.04
2018-03-01T02:23:28.741Z,80.98
2018-03-01T02:27:32.885Z,80.35
2018-03-01T02:31:36.256Z,79.63
2018-03-01T02:35:39.655Z,80.10
2018-03-01T02:39:43.022Z,80.09
2018-03-01T02:43:46.394Z,79.63
2018-03-01T02:47:50.516Z,79.34
2018-03-01T02:51:54.646Z,78.60
2018-03-01T02:55:58.768Z,78.50
2018-03-01T03:00:02.896Z,79.01
2018-03-01T03:04:07.017Z,78.90
2018-03-01T03:08:11.149Z,79.39
2018-03-01T03:12:14.508Z,78.79
2018-03-01T03:16:17.880Z,78.68
2018-03-01T03:20:21.255Z,78.23
2018-03-01T03:24:25.394Z,78.50
2018-03-01T03:28:28.754Z,78.86
2018-03-01T03:32:32.145Z,79.31
2018-03-01T03:36:35.500Z,78.89
2018-03-01T03:40:39.645Z,79.05
2018-03-01T03:44:43.000Z,78.88
2018-03-01T03:48:46.361Z,78.47
2018-03-01T03:52:49.721Z,78.55
2018-03-01T03:56:53.981Z,78.30
2018-03-01T04:00:57.333Z,78.08
2018-03-01T04:05:00.712Z,78.01
2018-03-01T04:09:04.082Z,78.22
2018-03-01T04:13:08.218Z,78.06
2018-03-01T04:17:11.583Z,77.05
2018-03-01T04:21:14.939Z,77.60
2018-03-01T04:25:18.339Z,77.63
2018-03-01T04:29:21.715Z,77.43
2018-03-01T04:33:25.943Z,78.21
2018-03-01T04:37:30.094Z,78.57
2018-03-01T04:41:33.475Z,78.86
2018-03-01T04:45:37.610Z,78.64
2018-03-01T04:49:40.974Z,78.15
2018-03-01T04:53:44.337Z,77.95
2018-03-01T04:57:47.689Z,77.59
2018-03-01T05:01:51.066Z,77.12
2018-03-01T05:05:54.467Z,78.02
2018-03-01T05:09:58.011Z,78.11
2018-03-01T05:14:01.392Z,77.56
2018-03-01T05:18:04.777Z,77.27
2018-03-01T05:22:08.140Z,76.50
2018-03-01T05:26:12.279Z,76.56
2018-03-01T05:30:16.433Z,77.00
2018-03-01T05:34:19.927Z,77.08
2018-03-01T05:38:23.284Z,77.87
2018-03-01T05:42:26.682Z,78.08
2018-03-01T05:46:30.041Z,77.33
2018-03-01T05:50:33.400Z,77.08
2018-03-01T05:54:36.776Z,76.48
2018-03-01T05:58:40.327Z,75.47
2018-03-01T06:02:43.829Z,75.42
2018-03-01T06:06:47.211Z,75.08
2018-03-01T06:10:50.612Z,75.46
2018-03-01T06:14:54.227Z,76.13
2018-03-01T06:18:57.623Z,75.46
2018-03-01T06:23:01.006Z,75.42
2018-03-01T06:27:04.389Z,75.29
2018-03-01T06:31:08.526Z,74.79
2018-03-01T06:35:11.889Z,75.03
2018-03-01T06:39:15.270Z,74.98
2018-03-01T06:43:18.629Z,74.77
2018-03-01T06:47:22.765Z,74.92
2018-03-01T06:51:26.150Z,75.18
2018-03-01T06:55:30.386Z,74.87
2018-03-01T06:59:34.537Z,75.27
2018-03-01T07:03:37.906Z,75.56
2018-03-01T07:07:42.042Z,75.83
2018-03-01T07:11:46.174Z,75.15
2018-03-01T07:15:49.566Z,75.36
2018-03-01T07:19:53.737Z,75.29
2018-03-01T07:23:57.116Z,75.06
2018-03-01T07:28:00.602Z,73.93
2018-03-01T07:32:04.726Z,74.99
2018-03-01T07:36:08.861Z,74.70
2018-03-01T07:40:12.981Z,74.85
2018-03-01T07:44:17.110Z,74.60
2018-03-01T07:48:20.597Z,74.09
2018-03-01T07:52:24.734Z,73.94
2018-03-01T07:56:29.066Z,74.51
2018-03-01T08:00:33.208Z,74.15
2018-03-01T08:04:36.591Z,75.08
2018-03-01T08:08:40.726Z,73.94
2018-03-01T08:12:44.302Z,73.19
2018-03-01T08:16:47.690Z,72.60
2018-03-01T08:20:51.139Z,72.38
2018-03-01T08:24:55.282Z,71.05
2018-03-01T08:28:58.883Z,71.54
2018-03-01T08:33:02.299Z,71.78
2018-03-01T08:37:05.669Z,72.64
2018-03-01T08:41:09.064Z,72.27
2018-03-01T08:45:12.474Z,72.34
2018-03-01T08:49:15.910Z,72.55
2018-03-01T08:53:20.079Z,72.28
2018-03-01T08:57:23.485Z,71.52
2018-03-01T09:01:26.909Z,72.30
2018-03-01T09:05:30.273Z,72.02
2018-03-01T09:09:33.661Z,72.15
2018-03-01T09:13:37.042Z,71.98
2018-03-01T09:17:41.168Z,72.36
2018-03-01T09:21:45.316Z,72.31
2018-03-01T09:25:48.825Z,72.24
2018-03-01T09:29:52.195Z,72.88
2018-03-01T09:33:55.577Z,73.28
2018-03-01T09:37:59.126Z,73.25
2018-03-01T09:42:03.365Z,74.69
2018-03-01T09:46:07.509Z,74.24
2018-03-01T09:50:10.907Z,74.52
2018-03-01T09:54:14.290Z,74.26
2018-03-01T09:58:18.461Z,74.73
2018-03-01T10:02:21.826Z,75.14
2018-03-01T10:06:26.085Z,75.18
2018-03-01T10:10:29.488Z,74.48
2018-03-01T10:14:32.868Z,74.84
2018-03-01T10:18:37.024Z,75.11
2018-03-01T10:22:40.421Z,75.64
2018-03-01T10:26:43.811Z,74.63
2018-03-01T10:30:47.205Z,73.52
2018-03-01T10:34:51.366Z,73.47
2018-03-01T10:38:54.739Z,72.73
2018-03-01T10:42:58.895Z,72.84
2018-03-01T10:47:02.311Z,72.65
2018-03-01T10:51:05.650Z,72.92
2018-03-01T10:55:09.049Z,73.64
2018-03-01T10:59:12.459Z,73.23
2018-03-01T11:03:15.892Z,74.03
2018-03-01T11:07:19.319Z,73.73
2018-03-01T11:11:22.737Z,73.58
2018-03-01T11:15:26.216Z,73.46
2018-03-01T11:19:29.601Z,72.83
2018-03-01T11:23:33.055Z,74.28
2018-03-01T11:27:36.437Z,73.76
2018-03-01T11:31:39.858Z,74.24
2018-03-01T11:35:43.297Z,74.56
2018-03-01T11:39:46.710Z,73.65
2018-03-01T11:43:50.093Z,73.39
2018-03-01T11:47:53.497Z,73.81
2018-03-01T11:51:56.895Z,71.98
2018-03-01T11:56:00.306Z,72.21
2018-03-01T12:00:03.810Z,72.06
2018-03-01T12:04:07.197Z,71.10
2018-03-01T12:08:10.791Z,70.98
2018-03-01T12:12:14.915Z,69.92
2018-03-01T12:16:19.075Z,69.87
2018-03-01T12:20:22.451Z,69.10
2018-03-01T12:24:26.578Z,69.24
2018-03-01T12:28:30.752Z,69.39
2018-03-01T12:32:34.264Z,68.29
2018-03-01T12:36:37.638Z,69.61
2018-03-01T12:40:41.058Z,71.34
2018-03-01T12:44:44.443Z,72.24
2018-03-01T12:48:47.877Z,72.71
2018-03-01T12:52:51.296Z,71.84
2018-03-01T12:56:54.701Z,69.47
2018-03-01T13:00:58.122Z,69.35
2018-03-01T13:05:01.550Z,70.69
2018-03-01T13:09:06.526Z,71.07
2018-03-01T13:13:09.932Z,72.32
2018-03-01T13:17:13.329Z,72.93
2018-03-01T13:21:16.715Z,73.35
2018-03-01T13:25:20.864Z,71.72
2018-03-01T13:29:24.288Z,71.06
2018-03-01T13:33:32.201Z,74.27
2018-03-01T13:37:35.616Z,75.03
2018-03-01T13:41:39.045Z,72.76
2018-03-01T13:45:42.797Z,71.94
2018-03-01T13:49:46.992Z,69.80
2018-03-01T13:53:50.473Z,69.45
2018-03-01T13:57:53.869Z,69.81
2018-03-01T14:01:57.480Z,70.20
2018-03-01T14:10:40.038Z,69.52
2018-03-01T14:14:43.455Z,68.07
2018-03-01T14:18:48.776Z,67.11
2018-03-01T14:22:52.617Z,67.11
2018-03-01T14:31:34.050Z,70.33
2018-03-01T14:35:37.571Z,69.66
2018-03-01T14:39:41.766Z,69.57
2018-03-01T14:43:45.269Z,69.53
2018-03-01T14:47:48.889Z,70.02
2018-03-01T14:51:52.467Z,70.98
2018-03-01T14:55:56.660Z,70.39
2018-03-01T15:00:00.083Z,70.45
2018-03-01T15:04:04.389Z,70.08
2018-03-01T15:08:07.921Z,69.30
2018-03-01T15:12:12.109Z,69.80
2018-03-01T15:16:15.499Z,69.42
2018-03-01T15:20:18.918Z,70.50
2018-03-01T15:24:23.173Z,70.80
2018-03-01T15:28:26.633Z,70.20
2018-03-01T15:32:30.040Z,69.68
2018-03-01T15:36:33.474Z,68.60
2018-03-01T15:40:36.902Z,69.56
2018-03-01T15:44:41.090Z,69.47
2018-03-01T15:48:44.516Z,69.83
2018-03-01T15:52:48.792Z,70.38
2018-03-01T15:56:52.201Z,71.52
2018-03-01T16:00:55.680Z,71.50
2018-03-01T16:04:59.039Z,72.55
2018-03-01T16:09:02.471Z,73.01
2018-03-01T16:13:05.880Z,73.50
2018-03-01T16:17:09.302Z,73.43
2018-03-01T16:21:12.755Z,75.04
2018-03-01T16:25:16.311Z,75.29
2018-03-01T16:29:19.710Z,75.49
2018-03-01T16:33:23.205Z,75.41
2018-03-01T16:37:26.614Z,75.28
2018-03-01T16:41:30.035Z,74.74
2018-03-01T16:45:33.423Z,74.51
2018-03-01T16:49:36.983Z,75.22
2018-03-01T16:53:41.196Z,76.38
2018-03-01T16:57:44.603Z,77.05
2018-03-01T17:01:48.035Z,77.12
2018-03-01T17:05:51.453Z,78.21
2018-03-01T17:09:55.028Z,79.12
2018-03-01T17:13:59.201Z,78.28
2018-03-01T17:18:03.913Z,82.28
2018-03-01T17:22:08.584Z,78.34
2018-03-01T17:26:12.085Z,77.24
2018-03-01T17:30:15.496Z,76.79
2018-03-01T17:34:18.902Z,77.61
2018-03-01T17:38:22.335Z,78.26
2018-03-01T17:42:25.755Z,77.49
2018-03-01T17:46:30.787Z,77.97
2018-03-01T17:50:34.210Z,76.43
2018-03-01T17:54:37.638Z,74.39
2018-03-01T17:58:41.802Z,75.46
2018-03-01T18:02:45.200Z,74.69
2018-03-01T18:06:48.623Z,74.77
2018-03-01T18:10:52.018Z,78.70
2018-03-01T18:14:55.416Z,78.60
2018-03-01T18:18:58.842Z,79.25
2018-03-01T18:23:02.276Z,78.36
2018-03-01T18:27:05.821Z,77.22
2018-03-01T18:31:09.274Z,76.32
2018-03-01T18:35:12.683Z,76.89
2018-03-01T18:39:16.142Z,77.75
2018-03-01T18:43:19.565Z,79.93
2018-03-01T18:47:22.995Z,78.92
2018-03-01T18:51:26.431Z,75.80
2018-03-01T18:55:29.841Z,74.88
2018-03-01T18:59:33.407Z,75.43
2018-03-01T19:03:36.918Z,75.37
2018-03-01T19:07:40.344Z,75.83
2018-03-01T19:11:43.850Z,76.26
2018-03-01T19:15:47.264Z,76.89
2018-03-01T19:19:50.693Z,78.12
2018-03-01T19:23:54.902Z,77.24
2018-03-01T19:27:58.333Z,77.59
2018-03-01T19:32:02.567Z,77.62
2018-03-01T19:36:06.786Z,75.31
2018-03-01T19:40:11.000Z,74.31
2018-03-01T19:44:15.219Z,74.77
2018-03-01T19:48:18.709Z,74.00
2018-03-01T19:52:22.144Z,74.80
2018-03-01T19:56:26.458Z,74.37
2018-03-01T20:00:31.395Z,73.65
2018-03-01T20:04:34.908Z,74.47
2018-03-01T20:08:38.324Z,74.67
2018-03-01T20:12:41.737Z,74.74
2018-03-01T20:16:45.952Z,74.65
2018-03-01T20:20:49.406Z,74.61
2018-03-01T20:24:52.868Z,74.32
2018-03-01T20:28:56.838Z,73.23
2018-03-01T20:33:00.257Z,73.38
2018-03-01T20:37:03.678Z,73.49
2018-03-01T20:41:07.069Z,72.84
2018-03-01T20:45:10.485Z,73.03
2018-03-01T20:49:13.880Z,73.24
2018-03-01T20:53:17.270Z,73.94
2018-03-01T20:57:20.833Z,74.43
2018-03-01T21:01:24.252Z,75.99
2018-03-01T21:05:28.440Z,75.21
2018-03-01T21:09:31.884Z,74.52
2018-03-01T21:13:36.048Z,75.19
2018-03-01T21:17:40.307Z,77.59
2018-03-01T21:21:43.700Z,78.06
2018-03-01T21:25:47.164Z,77.34
2018-03-01T21:29:51.310Z,77.91
2018-03-01T21:33:54.720Z,78.67
2018-03-01T21:37:58.103Z,79.51
2018-03-01T21:42:01.882Z,78.82
2018-03-01T21:46:05.266Z,78.99
2018-03-01T21:50:08.646Z,80.18
2018-03-01T21:54:12.134Z,78.61
2018-03-01T21:58:16.288Z,79.76
2018-03-01T22:02:19.710Z,80.76
2018-03-01T22:06:23.207Z,80.90
2018-03-01T22:10:26.586Z,81.36
2018-03-01T22:14:29.998Z,81.82
2018-03-01T22:18:33.379Z,81.71
2018-03-01T22:22:37.498Z,81.05
2018-03-01T22:26:40.865Z,81.26
2018-03-01T22:30:44.364Z,81.64
2018-03-01T22:34:47.780Z,82.18
2018-03-01T22:38:51.138Z,82.43
2018-03-01T22:42:54.542Z,82.46
2018-03-01T22:46:57.934Z,82.19
2018-03-01T22:51:02.073Z,82.05
2018-03-01T22:55:06.250Z,81.84
2018-03-01T22:59:09.630Z,81.46
2018-03-01T23:03:13.017Z,80.96
2018-03-01T23:07:16.369Z,81.00
2018-03-01T23:11:19.750Z,81.08
2018-03-01T23:15:23.357Z,81.20
2018-03-01T23:19:26.855Z,80.76
2018-03-01T23:23:30.225Z,80.50
2018-03-01T23:27:34.371Z,80.29
2018-03-01T23:31:38.503Z,80.26
2018-03-01T23:35:41.864Z,79.20
2018-03-01T23:39:45.243Z,78.73
2018-03-01T23:43:48.618Z,78.67
2018-03-01T23:47:51.979Z,77.90
2018-03-01T23:51:55.329Z,78.30
2018-03-01T23:55:58.695Z,78.37
